Terminal Aerodrome Forecast
Issued by NWS Twin Cities, MN

Home | Current Version | Previous Version | Graphics & Text | Print | Product List | Glossary On
Versions: 1 2 3 4 5 6 7 8 9 10 11 12 13 14 15 16 17
283
FTUS43 KMPX 220520
TAFSTC
TAF
KSTC 220520Z 2206/2306 03005KT P6SM SKC
     FM221000 19004KT P6SM SKC
     FM221600 13010KT P6SM SCT100
     FM222000 15012G21KT P6SM OVC080
     FM230100 15009KT P6SM OVC060=

USA.gov is the U.S. government's official web portal to all federal, state and local government web resources and services.